createdAt,value
2023-04-03T03:01:49.414Z,1.30
2023-04-03T03:04:17.450Z,1.20
2023-04-03T03:06:47.378Z,1.53
2023-04-03T03:09:15.602Z,1.43
2023-04-03T03:11:44.387Z,1.20
2023-04-03T03:14:12.476Z,1.30
2023-04-03T03:16:40.401Z,1.40
2023-04-03T03:19:09.829Z,1.30
2023-04-03T03:21:37.897Z,1.30
2023-04-03T03:24:06.463Z,1.20
2023-04-03T03:26:34.731Z,1.30
2023-04-03T03:29:04.292Z,1.37
2023-04-03T03:31:32.259Z,1.20
2023-04-03T03:34:00.165Z,1.30
2023-04-03T03:36:29.376Z,1.30
2023-04-03T03:38:58.650Z,1.30
2023-04-03T03:41:26.564Z,1.30
2023-04-03T03:43:54.573Z,1.50
2023-04-03T03:46:22.477Z,1.43
2023-04-03T03:48:50.714Z,1.30
2023-04-03T03:51:18.564Z,1.50
2023-04-03T03:53:47.825Z,1.50
2023-04-03T03:56:18.551Z,1.40
2023-04-03T03:58:47.507Z,1.30
2023-04-03T04:01:16.121Z,1.63
2023-04-03T04:03:48.176Z,1.13
2023-04-03T04:06:20.723Z,1.40
2023-04-03T04:08:51.037Z,1.47
2023-04-03T04:11:19.846Z,1.20
2023-04-03T04:13:48.583Z,1.40
2023-04-03T04:16:18.573Z,1.10
2023-04-03T04:18:46.843Z,1.43
2023-04-03T04:21:15.053Z,1.40
2023-04-03T04:23:43.588Z,1.20
2023-04-03T04:26:12.938Z,1.40
2023-04-03T04:28:41.860Z,1.23
2023-04-03T04:31:09.974Z,1.40
2023-04-03T04:33:38.397Z,1.33
2023-04-03T04:36:08.799Z,1.13
2023-04-03T04:38:37.107Z,1.20
2023-04-03T04:41:05.217Z,1.40
2023-04-03T04:43:34.811Z,1.20
2023-04-03T04:46:04.603Z,1.43
2023-04-03T04:48:35.995Z,1.20
2023-04-03T04:51:05.330Z,1.10
2023-04-03T04:53:34.715Z,1.10
2023-04-03T04:56:02.864Z,1.40
2023-04-03T04:58:32.033Z,1.27
2023-04-03T05:01:02.957Z,1.60
2023-04-03T05:03:31.986Z,1.10
2023-04-03T05:06:00.689Z,1.50
2023-04-03T05:08:30.581Z,1.50
2023-04-03T05:10:59.042Z,1.30
2023-04-03T05:13:28.531Z,1.30
2023-04-03T05:15:58.067Z,1.20
2023-04-03T05:18:27.618Z,1.50
2023-04-03T05:20:58.732Z,1.20
2023-04-03T05:23:27.511Z,1.20
2023-04-03T05:25:56.510Z,1.40
2023-04-03T05:28:25.390Z,1.30
2023-04-03T05:30:56.415Z,1.40
2023-04-03T05:33:25.536Z,1.40
2023-04-03T05:35:57.062Z,1.40
2023-04-03T05:38:29.824Z,1.30
2023-04-03T05:40:57.884Z,1.40
2023-04-03T05:43:26.040Z,1.37
2023-04-03T05:45:54.677Z,1.40
2023-04-03T05:48:24.913Z,1.33
2023-04-03T05:50:54.599Z,1.30
2023-04-03T05:53:31.375Z,1.50
2023-04-03T05:56:02.822Z,1.50
2023-04-03T05:58:33.743Z,1.50
2023-04-03T06:01:02.925Z,1.40
2023-04-03T06:03:31.679Z,1.63
2023-04-03T06:05:59.760Z,1.67
2023-04-03T06:08:28.979Z,1.50
2023-04-03T06:10:57.167Z,1.50
2023-04-03T06:13:25.132Z,1.40
2023-04-03T06:15:53.260Z,1.50
2023-04-03T06:18:21.484Z,1.50
2023-04-03T06:20:49.322Z,1.50
2023-04-03T06:23:17.458Z,1.20
2023-04-03T06:25:47.054Z,1.27
2023-04-03T06:28:15.381Z,1.50
2023-04-03T06:30:43.257Z,1.50
2023-04-03T06:33:11.722Z,1.47
2023-04-03T06:35:39.620Z,1.30
2023-04-03T06:38:10.368Z,1.23
2023-04-03T06:40:38.719Z,1.40
2023-04-03T06:43:08.247Z,1.20
2023-04-03T06:45:37.537Z,1.03
2023-04-03T06:48:06.496Z,1.20
2023-04-03T06:50:34.456Z,1.40
2023-04-03T06:53:03.348Z,1.50
2023-04-03T06:55:31.442Z,1.60
2023-04-03T06:57:59.387Z,1.10
2023-04-03T07:00:29.456Z,1.17
2023-04-03T07:02:58.474Z,1.17
2023-04-03T07:05:26.977Z,1.13
2023-04-03T07:07:55.199Z,1.10
2023-04-03T07:10:23.038Z,1.10
2023-04-03T07:12:50.857Z,1.00
2023-04-03T07:15:18.953Z,1.17
2023-04-03T07:17:48.414Z,1.10
2023-04-03T07:20:16.797Z,1.23
2023-04-03T07:22:44.645Z,1.40
2023-04-03T07:25:12.490Z,1.20
2023-04-03T07:27:40.320Z,1.03
2023-04-03T07:30:10.167Z,1.07
2023-04-03T07:32:38.040Z,1.30
2023-04-03T07:35:07.916Z,1.33
2023-04-03T07:37:35.783Z,1.10
2023-04-03T07:40:04.601Z,1.23
2023-04-03T07:42:32.528Z,1.25
2023-04-03T07:45:01.130Z,1.10
2023-04-03T07:47:29.038Z,1.20
2023-04-03T07:49:58.178Z,1.30
2023-04-03T07:52:27.440Z,1.30
2023-04-03T07:54:55.392Z,1.30
2023-04-03T07:57:23.263Z,1.17
2023-04-03T07:59:51.103Z,1.17
2023-04-03T08:02:18.907Z,1.20
2023-04-03T08:04:46.842Z,1.30
2023-04-03T08:07:14.769Z,1.10
2023-04-03T08:09:43.962Z,1.30
2023-04-03T08:12:12.389Z,1.27
2023-04-03T08:14:40.268Z,1.23
2023-04-03T08:17:10.440Z,1.53
2023-04-03T08:19:38.279Z,1.20
2023-04-03T08:22:06.401Z,1.27
2023-04-03T08:24:34.404Z,1.10
2023-04-03T08:27:03.965Z,1.27
2023-04-03T08:29:32.991Z,1.20
2023-04-03T08:32:01.721Z,1.60
2023-04-03T08:34:29.560Z,1.10
2023-04-03T08:36:57.386Z,1.50
2023-04-03T08:39:25.252Z,1.40
2023-04-03T08:41:53.918Z,1.50
2023-04-03T08:44:28.625Z,1.23
2023-04-03T08:47:13.535Z,1.50
2023-04-03T08:49:48.031Z,1.30
2023-04-03T08:52:19.817Z,1.30
2023-04-03T08:54:52.874Z,1.30
2023-04-03T08:57:33.204Z,1.50
2023-04-03T09:00:08.436Z,1.33
2023-04-03T09:02:43.547Z,1.73
2023-04-03T09:05:14.991Z,1.50
2023-04-03T09:07:49.725Z,1.20
2023-04-03T09:10:25.197Z,1.27
2023-04-03T09:13:01.150Z,1.20
2023-04-03T09:15:38.480Z,1.60
2023-04-03T09:18:14.797Z,1.10
2023-04-03T09:20:48.072Z,1.50
2023-04-03T09:23:22.568Z,1.30
2023-04-03T09:25:52.911Z,1.13
2023-04-03T09:28:20.875Z,1.23
2023-04-03T09:30:50.187Z,1.30
2023-04-03T09:33:19.317Z,1.20
2023-04-03T09:35:49.367Z,1.20
2023-04-03T09:38:20.384Z,1.00
2023-04-03T09:40:50.113Z,1.17
2023-04-03T09:43:28.287Z,1.40
2023-04-03T09:45:58.767Z,1.23
2023-04-03T09:48:29.047Z,1.55
2023-04-03T09:51:02.573Z,1.40
2023-04-03T09:53:37.674Z,1.60
2023-04-03T09:56:19.988Z,1.50
2023-04-03T09:58:51.328Z,1.50
2023-04-03T10:01:29.914Z,1.48
2023-04-03T10:04:11.920Z,1.50
2023-04-03T10:06:44.306Z,1.45
2023-04-03T10:09:21.860Z,1.65
2023-04-03T10:12:06.365Z,1.50
2023-04-03T10:14:35.195Z,1.73
2023-04-03T10:17:20.426Z,1.70
2023-04-03T10:19:52.163Z,1.65
2023-04-03T10:22:33.684Z,1.70
2023-04-03T10:25:10.269Z,1.77
2023-04-03T10:27:46.947Z,1.40
2023-04-03T10:30:28.664Z,1.60
2023-04-03T10:33:11.178Z,1.50
2023-04-03T10:35:47.129Z,1.70
2023-04-03T10:38:21.947Z,1.60
2023-04-03T10:40:57.470Z,1.70
2023-04-03T10:43:35.308Z,1.80
2023-04-03T10:46:08.240Z,2.88
2023-04-03T10:48:48.050Z,1.90
2023-04-03T10:51:27.512Z,1.60
2023-04-03T10:54:01.773Z,1.77
2023-04-03T10:56:37.252Z,1.55
2023-04-03T10:59:18.256Z,1.48
2023-04-03T11:01:50.024Z,1.65
2023-04-03T11:04:22.051Z,1.70
2023-04-03T11:06:55.782Z,1.70
2023-04-03T11:09:28.207Z,1.67
2023-04-03T11:12:02.142Z,1.92
2023-04-03T11:14:32.465Z,1.88
2023-04-03T11:17:11.008Z,2.40
2023-04-03T11:19:44.802Z,2.00
2023-04-03T11:22:20.120Z,1.80
2023-04-03T11:24:58.177Z,3.50
2023-04-03T11:27:28.104Z,2.28
2023-04-03T11:29:57.688Z,3.35
2023-04-03T11:32:51.537Z,2.05
2023-04-03T11:35:21.932Z,2.15
2023-04-03T11:37:52.457Z,2.05
2023-04-03T11:40:26.304Z,1.95
2023-04-03T11:42:56.879Z,2.00
2023-04-03T11:45:35.410Z,1.83
2023-04-03T11:48:17.058Z,2.00
2023-04-03T11:50:53.458Z,1.90
2023-04-03T11:53:34.206Z,2.25
2023-04-03T11:56:04.746Z,1.67
2023-04-03T11:58:34.861Z,1.90
2023-04-03T12:01:13.553Z,1.70
2023-04-03T12:04:15.877Z,1.70
2023-04-03T12:07:05.199Z,1.75
2023-04-03T12:09:52.225Z,2.00
2023-04-03T12:12:41.555Z,2.20
2023-04-03T12:15:23.052Z,2.13
2023-04-03T12:17:52.566Z,1.80
2023-04-03T12:20:58.217Z,1.80
2023-04-03T12:23:30.659Z,1.80
2023-04-03T12:26:07.734Z,1.95
2023-04-03T12:28:41.372Z,1.95
2023-04-03T12:31:13.522Z,1.70
2023-04-03T12:34:00.726Z,1.65
2023-04-03T12:36:37.313Z,2.20
2023-04-03T12:39:22.852Z,1.85
2023-04-03T12:42:03.851Z,2.00
2023-04-03T12:44:46.274Z,1.70
2023-04-03T12:47:33.799Z,1.50
2023-04-03T12:50:03.929Z,2.10
2023-04-03T12:52:37.276Z,1.60
2023-04-03T12:55:16.145Z,1.80
2023-04-03T12:57:44.017Z,1.90
2023-04-03T13:00:35.131Z,1.80
2023-04-03T13:03:05.412Z,1.77
2023-04-03T13:05:36.688Z,1.77
2023-04-03T13:08:10.380Z,1.80
2023-04-03T13:10:54.599Z,2.00
2023-04-03T13:13:23.933Z,1.70
2023-04-03T13:15:53.644Z,1.80
2023-04-03T13:18:26.543Z,1.90
2023-04-03T13:20:56.280Z,1.70
2023-04-03T13:23:24.688Z,1.63
2023-04-03T13:25:54.052Z,2.00
2023-04-03T13:28:24.960Z,1.90
2023-04-03T13:31:01.171Z,1.80
2023-04-03T13:33:32.380Z,1.50
2023-04-03T13:36:05.236Z,1.75
2023-04-03T13:38:34.972Z,1.73
2023-04-03T13:41:07.169Z,1.90
2023-04-03T13:43:37.079Z,1.90
2023-04-03T13:46:23.654Z,2.20
2023-04-03T13:48:53.393Z,1.58
2023-04-03T13:51:25.419Z,1.90
2023-04-03T13:53:55.837Z,1.90
2023-04-03T13:56:32.296Z,2.00
2023-04-03T13:59:08.315Z,1.83
2023-04-03T14:01:46.145Z,1.88
2023-04-03T14:04:20.821Z,1.70
2023-04-03T14:06:49.774Z,1.90
2023-04-03T14:09:19.452Z,1.80
2023-04-03T14:11:50.205Z,1.80
2023-04-03T14:14:21.254Z,1.90
2023-04-03T14:16:53.723Z,1.73
2023-04-03T14:19:24.781Z,1.95
2023-04-03T14:21:53.646Z,1.90
2023-04-03T14:24:22.619Z,1.80
2023-04-03T14:26:53.272Z,1.80
2023-04-03T14:29:22.499Z,1.90
2023-04-03T14:31:57.759Z,1.73
2023-04-03T14:34:31.747Z,2.13
2023-04-03T14:36:59.744Z,2.10
2023-04-03T14:39:27.633Z,1.60
2023-04-03T14:41:56.821Z,1.95
2023-04-03T14:44:24.899Z,1.85
2023-04-03T14:46:56.967Z,2.20
2023-04-03T14:49:29.012Z,2.00
2023-04-03T14:51:57.506Z,1.98
2023-04-03T14:54:28.634Z,2.10
2023-04-03T14:57:00.570Z,1.95
2023-04-03T14:59:29.096Z,2.00
2023-04-03T15:01:57.088Z,2.22
2023-04-03T15:04:26.188Z,2.10
2023-04-03T15:06:54.677Z,2.00
2023-04-03T15:09:25.084Z,2.00
2023-04-03T15:11:54.512Z,2.13
2023-04-03T15:14:35.483Z,1.90
2023-04-03T15:17:17.775Z,2.10
2023-04-03T15:19:46.095Z,1.83
2023-04-03T15:22:16.605Z,2.00
2023-04-03T15:24:44.651Z,2.10
2023-04-03T15:27:14.120Z,1.77
2023-04-03T15:29:44.680Z,1.50
2023-04-03T15:32:13.906Z,1.85
2023-04-03T15:34:42.638Z,1.70
2023-04-03T15:37:10.808Z,1.77
2023-04-03T15:39:38.785Z,1.60
2023-04-03T15:42:07.646Z,1.60
2023-04-03T15:44:35.921Z,1.65
2023-04-03T15:47:05.897Z,1.83
2023-04-03T15:49:35.743Z,1.38
2023-04-03T15:52:03.925Z,1.60
2023-04-03T15:54:31.943Z,1.30
2023-04-03T15:57:02.072Z,1.70
2023-04-03T15:59:31.673Z,2.55
2023-04-03T16:02:01.727Z,1.50
2023-04-03T16:04:31.858Z,2.17
2023-04-03T16:07:03.163Z,2.00
2023-04-03T16:09:31.200Z,2.05
2023-04-03T16:12:01.430Z,1.90
2023-04-03T16:14:31.113Z,1.50
2023-04-03T16:16:59.972Z,2.08
2023-04-03T16:19:27.936Z,1.60
2023-04-03T16:21:57.857Z,1.42
2023-04-03T16:24:26.999Z,1.33
2023-04-03T16:26:55.270Z,1.20
2023-04-03T16:29:23.174Z,1.45
2023-04-03T16:31:51.146Z,1.40
2023-04-03T16:34:19.117Z,1.48
2023-04-03T16:36:47.037Z,1.40
2023-04-03T16:39:16.974Z,1.40
2023-04-03T16:41:44.929Z,1.20
2023-04-03T16:44:13.037Z,1.20
2023-04-03T16:46:40.930Z,1.30
2023-04-03T16:49:08.928Z,1.40
2023-04-03T16:51:50.993Z,1.27
2023-04-03T16:54:20.319Z,1.30
2023-04-03T16:56:48.299Z,1.33
2023-04-03T16:59:16.426Z,1.38
2023-04-03T17:01:44.557Z,1.40
2023-04-03T17:04:13.742Z,1.17
2023-04-03T17:06:42.019Z,0.95
2023-04-03T17:09:10.818Z,1.30
2023-04-03T17:11:40.480Z,1.02
2023-04-03T17:14:08.387Z,1.20
2023-04-03T17:16:38.696Z,1.20
2023-04-03T17:19:07.230Z,1.05
2023-04-03T17:21:35.785Z,1.00
2023-04-03T17:24:09.138Z,1.20
2023-04-03T17:26:38.292Z,1.33
2023-04-03T17:29:07.859Z,1.17
2023-04-03T17:31:36.199Z,1.02
2023-04-03T17:34:05.990Z,1.10
2023-04-03T17:36:34.936Z,1.25
2023-04-03T17:39:02.788Z,1.10
2023-04-03T17:41:30.702Z,1.23
2023-04-03T17:43:58.778Z,1.17
2023-04-03T17:46:29.672Z,1.40
2023-04-03T17:48:59.349Z,1.40
2023-04-03T17:51:27.946Z,1.10
2023-04-03T17:53:55.912Z,1.38
2023-04-03T17:56:27.065Z,1.30
2023-04-03T17:58:56.468Z,1.27
2023-04-03T18:01:28.248Z,1.38
2023-04-03T18:04:00.509Z,1.50
2023-04-03T18:06:31.429Z,1.48
2023-04-03T18:09:06.453Z,1.58
2023-04-03T18:11:35.959Z,1.90
2023-04-03T18:14:07.442Z,1.60
2023-04-03T18:16:36.685Z,2.10
2023-04-03T18:19:22.008Z,1.52
2023-04-03T18:21:52.475Z,1.77
2023-04-03T18:24:22.932Z,1.70
2023-04-03T18:26:54.564Z,1.38
2023-04-03T18:29:22.974Z,1.20
2023-04-03T18:31:54.959Z,1.33
2023-04-03T18:34:22.983Z,1.50
2023-04-03T18:36:52.290Z,1.70
2023-04-03T18:39:20.840Z,1.60
2023-04-03T18:41:49.804Z,1.88
2023-04-03T18:44:21.801Z,2.50
2023-04-03T18:46:50.103Z,2.63
2023-04-03T18:49:19.601Z,2.63
2023-04-03T18:51:48.093Z,3.45
2023-04-03T18:54:16.322Z,4.70
2023-04-03T18:56:44.537Z,3.73
2023-04-03T18:59:12.454Z,2.40
2023-04-03T19:01:40.694Z,2.03
2023-04-03T19:04:09.619Z,2.10
2023-04-03T19:06:39.557Z,1.90
2023-04-03T19:09:08.246Z,1.17
2023-04-03T19:11:36.671Z,1.50
2023-04-03T19:14:15.772Z,1.50
2023-04-03T19:16:44.583Z,1.30
2023-04-03T19:19:13.411Z,1.27
2023-04-03T19:21:42.952Z,1.40
2023-04-03T19:24:13.229Z,1.30
2023-04-03T19:26:41.978Z,1.27
2023-04-03T19:29:10.778Z,1.43
2023-04-03T19:31:39.419Z,1.37
2023-04-03T19:34:07.667Z,1.40
2023-04-03T19:36:36.946Z,1.37
2023-04-03T19:39:07.795Z,1.27
2023-04-03T19:41:37.813Z,1.60
2023-04-03T19:44:07.633Z,1.40
2023-04-03T19:46:36.737Z,1.30
2023-04-03T19:49:04.883Z,1.53
2023-04-03T19:51:32.989Z,1.50
2023-04-03T19:54:00.861Z,1.50
2023-04-03T19:56:30.092Z,1.63
2023-04-03T19:58:57.982Z,1.23
2023-04-03T20:01:27.684Z,1.40
2023-04-03T20:03:55.596Z,1.27
2023-04-03T20:06:23.592Z,1.20
2023-04-03T20:08:51.589Z,1.60
2023-04-03T20:11:19.453Z,1.33
2023-04-03T20:13:51.714Z,1.50
2023-04-03T20:16:20.747Z,1.50
2023-04-03T20:18:50.374Z,1.40
2023-04-03T20:21:20.435Z,1.50
2023-04-03T20:23:48.677Z,1.40
2023-04-03T20:26:23.254Z,1.30
2023-04-03T20:28:52.532Z,1.33
2023-04-03T20:31:21.807Z,1.33
2023-04-03T20:33:50.155Z,1.70
2023-04-03T20:36:19.844Z,1.60
2023-04-03T20:38:48.842Z,1.40
2023-04-03T20:41:16.861Z,1.37
2023-04-03T20:43:45.508Z,1.70
2023-04-03T20:46:19.312Z,1.40
2023-04-03T20:48:47.657Z,1.40
2023-04-03T20:51:18.244Z,1.30
2023-04-03T20:53:46.817Z,1.40
2023-04-03T20:56:16.202Z,1.40
2023-04-03T20:58:46.162Z,1.37
2023-04-03T21:01:17.718Z,1.43
2023-04-03T21:03:47.038Z,1.40
2023-04-03T21:06:52.430Z,1.47
2023-04-03T21:09:58.127Z,1.43
2023-04-03T21:13:04.227Z,1.30
2023-04-03T21:15:47.290Z,1.40
2023-04-03T21:18:39.329Z,1.53
2023-04-03T21:21:07.245Z,1.40
2023-04-03T21:23:35.245Z,1.40
2023-04-03T21:26:03.272Z,1.27
2023-04-03T21:28:31.642Z,1.40
2023-04-03T21:30:59.562Z,1.40
2023-04-03T21:33:27.536Z,1.60
2023-04-03T21:35:59.904Z,1.47
2023-04-03T21:38:28.151Z,1.60
2023-04-03T21:40:57.616Z,1.30
2023-04-03T21:43:25.727Z,1.40
2023-04-03T21:45:55.130Z,1.50
2023-04-03T21:48:23.222Z,1.27
2023-04-03T21:50:52.389Z,1.60
2023-04-03T21:53:22.425Z,1.90
2023-04-03T21:55:57.273Z,1.50
2023-04-03T21:58:30.396Z,1.30
